jeddah.gov.sa alexa rank chart, jeddah.gov.sa alexa rank daily changes

jeddah.gov.sa alexa rank chart, jeddah.gov.sa alexa rank daily changes

jeddah.gov.sa
Actual rank:
136 748

RANK HISTORY

Date Rank Diff
2017/10/17 136 748 -3 166
2017/10/16 139 914 +2 948
2017/10/14 136 966 +1 575
2017/10/13 135 391 +383
2017/10/12 135 008 +1 103
2017/10/11 133 905 +29
2017/10/10 133 876 -5 747
2017/10/09 139 623 -2 359
2017/10/08 141 982 -423
2017/10/07 142 405 +1 247
2017/10/06 141 158 -2 455
2017/10/05 143 613 -998
2017/10/04 144 611 -4 228
2017/10/03 148 839 -4 900
2017/10/02 153 739 -2 490
2017/10/01 156 229 -1 108
2017/09/30 157 337 +1 033
2017/09/29 156 304 -1 031
2017/09/28 157 335 +2 557
2017/09/27 154 778 -1 131
2017/09/26 155 909 -507
2017/09/25 156 416 +2 914
2017/09/24 153 502 +4 759
2017/09/23 148 743 +599
2017/09/22 148 144 +1 043
2017/09/20 147 101 -2 392
2017/09/19 149 493 +184
2017/09/18 149 309 +247
2017/09/17 149 062 +7 199
2017/09/16 141 863 +1 916
2017/09/15 139 947 +2 971
2017/09/14 136 976 -800
2017/09/13 137 776 -2 832
2017/09/12 140 608 +994
2017/09/11 139 614 +2 406
2017/09/10 137 208 +6 521
2017/09/09 130 687 +3 849
2017/09/08 126 838 +3 556
2017/09/07 123 282 +114
2017/09/06 123 168 +58
2017/09/05 123 110 +936
2017/09/04 122 174 +3 533
2017/09/03 118 641 +2 499
2017/09/02 116 142 +2 004
2017/09/01 114 138 +1 633
2017/08/31 112 505 +2 150
2017/08/30 110 355 -1 866
2017/08/29 112 221 +3 266
2017/08/28 108 955 +1 056
2017/08/27 107 899 +4 132
2017/08/26 103 767 +2 417
2017/08/25 101 350 +2 015
2017/08/24 99 335 +552
2017/08/23 98 783 -45
2017/08/22 98 828 +4 578
2017/08/21 94 250 +5 509
2017/08/20 88 741 +5 565
2017/08/19 83 176 +6 411
2017/08/18 76 765

WIDGET FOR YOUR SITE

DOMAINS WITH THE NEAREST RANK

Domain Rank
rbot.fi 136 743
kristiania.no 136 744
click-or-die.ru 136 745
onlineias.com 136 746
arduino-info.wikispaces.com 136 747
jeddah.gov.sa 136 748
bonbon.hr 136 749
dbs.com.tw 136 750
revistanaturadigital.com 136 751
captvty.fr 136 752
ganttpro.com 136 753

DOMAINS WITH THE NEAREST RANK BY TLD .gov.sa

Domain Rank
eskan.gov.sa 129 708
bishaedu.gov.sa 131 872
stats.gov.sa 134 657
jeddah.gov.sa 136 748